.
WxDataArchive / Data Records for 2007-06-16
2007-06-15 June 2007 2007-06-17

Data Records for Saturday, 16 June 2007

Time	Temp	Chill	HIndex	Humid	Dewpt	 Wind 	HiWind	WindDir	Rain 	Barom 
-----	----	-----	------	-----	-----	------	------	-------	-----	----- 
00:00	62.4	62.4	62.4	61	48.8	0	0	---	0.00	29.947 
00:05	62.1	62.1	62.1	62	48.9	0	0	---	0.00	29.947 
00:10	61.8	61.8	61.8	63	49.1	0	0	---	0.00	29.946 
00:15	61.6	61.6	61.6	63	48.9	0	0	---	0.00	29.944 
00:20	61.3	61.3	61.3	64	49.0	0	0	---	0.00	29.943 
00:25	61.3	61.3	61.3	65	49.4	0	0	---	0.00	29.943 
00:30	61.0	61.0	61.0	64	48.7	0	0	---	0.00	29.943 
00:35	60.9	60.9	60.9	63	48.2	0	0	---	0.00	29.943 
00:40	60.7	60.7	60.7	65	48.9	0	0	---	0.00	29.943 
00:45	60.5	60.5	60.5	64	48.3	0	0	---	0.00	29.942 
00:50	60.7	60.7	60.7	64	48.4	0	0	---	0.00	29.941 
00:55	61.2	61.2	61.2	65	49.3	0	0	---	0.00	29.942 
01:00	61.6	61.6	61.6	64	49.3	0	0	---	0.00	29.942 
01:05	62.0	62.0	62.0	64	49.7	0	0	---	0.00	29.943 
01:10	62.0	62.0	62.0	64	49.7	0	0	---	0.00	29.943 
01:15	61.8	61.8	61.8	63	49.1	0	0	---	0.00	29.942 
01:20	61.6	61.6	61.6	64	49.3	0	0	---	0.00	29.941 
01:25	61.5	61.5	61.5	65	49.6	0	0	---	0.00	29.942 
01:30	61.2	61.2	61.2	66	49.7	0	0	---	0.00	29.942 
01:35	61.0	61.0	61.0	66	49.6	0	0	---	0.00	29.942 
01:40	60.7	60.7	60.7	68	50.1	0	0	---	0.00	29.943 
01:45	60.5	60.5	60.5	68	49.9	0	0	---	0.00	29.943 
01:50	60.2	60.2	60.2	69	50.0	0	0	---	0.00	29.945 
01:55	60.1	60.1	60.1	69	49.9	0	0	---	0.00	29.945 
02:00	59.9	59.9	59.9	70	50.1	0	0	---	0.00	29.945 
02:05	59.9	59.9	59.9	71	50.5	0	0	---	0.00	29.943 
02:10	59.6	59.6	59.6	71	50.2	0	0	---	0.00	29.943 
02:15	59.5	59.5	59.5	72	50.5	0	0	---	0.00	29.942 
02:20	59.3	59.3	59.3	73	50.6	0	0	---	0.00	29.943 
02:25	59.0	59.0	59.0	73	50.4	0	0	---	0.00	29.942 
02:30	58.9	58.9	58.9	74	50.6	0	0	---	0.00	29.942 
02:35	58.6	58.6	58.6	75	50.7	0	0	---	0.00	29.943 
02:40	58.4	58.4	58.4	75	50.5	0	0	---	0.00	29.943 
02:45	58.3	58.3	58.3	77	51.1	0	0	---	0.00	29.944 
02:50	58.1	58.1	58.1	77	50.9	0	0	---	0.00	29.944 
02:55	58.1	58.1	58.1	77	50.9	0	0	---	0.00	29.941 
03:00	58.0	58.0	58.0	78	51.2	0	0	---	0.00	29.938 
03:05	57.8	57.8	57.8	78	51.0	0	0	---	0.00	29.936 
03:10	58.0	58.0	58.0	79	51.5	0	0	---	0.00	29.935 
03:15	57.8	57.8	57.8	79	51.3	0	0	---	0.00	29.931 
03:20	57.8	57.8	57.8	81	52.0	0	0	---	0.00	29.933 
03:25	57.6	57.6	57.6	81	51.8	0	0	---	0.00	29.935 
03:30	57.5	57.5	57.5	82	52.0	0	0	---	0.00	29.934 
03:35	57.5	57.5	57.5	83	52.4	0	0	---	0.00	29.939 
03:40	57.5	57.5	57.5	83	52.4	0	0	---	0.00	29.942 
03:45	57.5	57.5	57.5	84	52.7	0	0	---	0.00	29.943 
03:50	57.3	57.3	57.3	84	52.5	0	0	---	0.00	29.944 
03:55	57.5	57.5	57.5	84	52.7	0	0	---	0.00	29.945 
04:00	57.3	57.3	57.3	84	52.5	0	0	---	0.00	29.944 
04:05	57.3	57.3	57.3	84	52.5	0	0	---	0.00	29.945 
04:10	57.2	57.2	57.2	84	52.4	0	0	---	0.00	29.947 
04:15	57.0	57.0	57.0	85	52.5	0	0	---	0.00	29.945 
04:20	56.9	56.9	56.9	85	52.4	0	0	---	0.00	29.944 
04:25	56.7	56.7	56.7	86	52.6	0	0	---	0.00	29.943 
04:30	56.6	56.6	56.6	87	52.8	0	0	---	0.00	29.941 
04:35	56.5	56.5	56.5	87	52.7	0	0	---	0.00	29.940 
04:40	56.5	56.5	56.5	88	53.0	0	0	---	0.00	29.940 
04:45	56.3	56.3	56.3	88	52.8	0	0	---	0.00	29.941 
04:50	56.3	56.3	56.3	88	52.8	0	0	---	0.00	29.941 
04:55	56.3	56.3	56.3	89	53.1	0	0	---	0.00	29.944 
05:00	56.3	56.3	56.3	90	53.4	0	0	---	0.00	29.946 
05:05	56.3	56.3	56.3	90	53.4	0	0	---	0.00	29.951 
05:10	56.3	56.3	56.3	90	53.4	0	0	---	0.00	29.952 
05:15	56.2	56.2	56.2	90	53.3	0	0	---	0.00	29.953 
05:20	56.3	56.3	56.3	90	53.4	0	0	---	0.00	29.958 
05:25	56.3	56.3	56.3	90	53.4	0	0	---	0.00	29.961 
05:30	56.5	56.5	56.5	90	53.6	0	0	---	0.00	29.959 
05:35	56.5	56.5	56.5	91	53.9	0	0	---	0.00	29.961 
05:40	56.5	56.5	56.5	91	53.9	0	0	---	0.00	29.963 
05:45	56.5	56.5	56.5	91	53.9	0	0	---	0.00	29.963 
05:50	56.6	56.6	56.6	91	54.0	0	0	---	0.00	29.965 
05:55	56.7	56.7	56.7	92	54.4	0	0	---	0.00	29.965 
06:00	57.0	57.0	57.0	92	54.7	0	0	---	0.00	29.965 
06:05	57.2	57.2	57.2	92	54.9	0	0	---	0.00	29.966 
06:10	57.5	57.5	57.5	92	55.2	0	0	---	0.00	29.967 
06:15	57.6	57.6	57.6	92	55.3	0	0	---	0.00	29.966 
06:20	58.3	58.3	58.3	92	56.0	0	0	---	0.00	29.966 
06:25	58.9	58.9	58.9	91	56.3	0	0	---	0.00	29.966 
06:30	59.6	59.6	59.6	90	56.7	0	0	---	0.00	29.964 
06:35	60.5	60.5	60.5	87	56.6	0	0	---	0.00	29.963 
06:40	61.8	61.8	61.8	83	56.6	0	0	---	0.00	29.965 
06:45	63.1	63.1	63.1	79	56.5	0	1	112	0.00	29.968 
06:50	64.2	64.2	64.2	76	56.5	0	2	112	0.00	29.969 
06:55	65.0	65.0	65.0	74	56.5	1	2	112	0.00	29.973 
07:00	65.6	65.6	65.6	73	56.7	1	2	112	0.00	29.971 
07:05	66.1	66.1	66.1	73	57.2	0	2	112	0.00	29.973 
07:10	66.6	66.6	66.6	71	56.9	1	2	112	0.00	29.975 
07:15	66.9	66.9	66.9	70	56.8	1	2	112	0.00	29.977 
07:20	67.4	67.4	67.4	69	56.9	0	2	112	0.00	29.978 
07:25	68.1	68.1	68.1	69	57.5	0	1	112	0.00	29.977 
07:30	68.6	68.6	68.6	68	57.6	1	2	112	0.00	29.977 
07:35	68.8	68.8	68.8	67	57.4	1	2	112	0.00	29.977 
07:40	69.3	69.3	69.3	67	57.9	1	2	112	0.00	29.977 
07:45	69.9	69.9	69.9	65	57.6	0	2	112	0.00	29.977 
07:50	70.4	70.4	70.4	63	57.2	1	2	112	0.00	29.979 
07:55	70.9	70.9	70.9	63	57.7	0	2	112	0.00	29.978 
08:00	71.6	71.6	71.6	62	57.9	0	1	112	0.00	29.975 
08:05	72.3	72.3	72.3	61	58.1	0	2	112	0.00	29.980 
08:10	72.8	72.8	72.8	59	57.6	0	1	112	0.00	29.979 
08:15	73.0	73.0	73.0	60	58.3	1	3	112	0.00	29.977 
08:20	73.5	73.5	73.5	62	59.7	1	3	112	0.00	29.977 
08:25	73.9	73.9	73.9	57	57.7	0	3	112	0.00	29.976 
08:30	74.4	74.4	74.4	54	56.7	1	2	112	0.00	29.975 
08:35	75.1	75.1	77.6	54	57.3	0	1	112	0.00	29.974 
08:40	75.6	75.6	77.9	54	57.8	1	3	112	0.00	29.973 
08:45	75.6	75.6	77.9	51	56.2	1	3	112	0.00	29.972 
08:50	75.8	75.8	78.0	52	56.9	0	1	112	0.00	29.972 
08:55	76.3	76.3	78.2	53	57.9	0	2	112	0.00	29.972 
09:00	77.2	77.2	78.7	48	56.0	0	1	112	0.00	29.971 
09:05	77.7	77.7	78.9	48	56.4	0	1	112	0.00	29.974 
09:10	78.3	78.3	79.4	50	58.1	0	1	112	0.00	29.974 
09:15	79.2	79.2	79.9	47	57.2	0	2	112	0.00	29.972 
09:20	79.4	79.4	80.1	48	58.0	0	1	112	0.00	29.972 
09:25	79.6	79.6	80.4	49	58.7	0	2	112	0.00	29.973 
09:30	79.0	79.0	79.7	46	56.4	0	2	112	0.00	29.972 
09:35	78.8	78.8	79.5	45	55.6	0	2	112	0.00	29.972 
09:40	79.2	79.2	80.0	48	57.8	1	3	112	0.00	29.972 
09:45	79.8	79.8	80.1	44	55.9	1	3	112	0.00	29.972 
09:50	80.1	80.1	80.5	46	57.4	0	2	112	0.00	29.972 
09:55	80.5	80.5	80.7	45	57.2	0	1	112	0.00	29.971 
10:00	81.1	81.1	81.0	43	56.5	1	2	180	0.00	29.971 
10:05	81.4	81.4	81.4	44	57.4	0	2	270	0.00	29.973 
10:10	81.6	81.6	81.0	39	54.2	1	2	270	0.00	29.972 
10:15	81.6	81.6	81.5	43	56.9	0	2	315	0.00	29.972 
10:20	82.2	82.2	81.9	42	56.8	0	3	315	0.00	29.972 
10:25	82.4	82.4	81.7	39	54.9	1	2	315	0.00	29.972 
10:30	82.6	82.6	82.4	43	57.8	0	2	315	0.00	29.971 
10:35	83.2	83.2	82.4	39	55.6	0	1	315	0.00	29.971 
10:40	83.6	83.6	82.5	37	54.5	0	2	315	0.00	29.971 
10:45	84.0	84.0	83.1	39	56.3	1	3	315	0.00	29.969 
10:50	84.3	84.3	83.1	37	55.2	0	1	0	0.00	29.968 
10:55	84.7	84.7	83.8	39	57.0	1	3	248	0.00	29.968 
11:00	84.9	84.9	83.6	36	54.9	1	2	315	0.00	29.968 
11:05	85.3	85.3	84.3	38	56.8	1	2	315	0.00	29.971 
11:10	85.5	85.5	84.2	36	55.5	1	3	270	0.00	29.969 
11:15	85.7	85.7	84.0	34	54.1	1	2	292	0.00	29.969 
11:20	86.1	86.1	84.4	34	54.4	1	4	45	0.00	29.968 
11:25	86.3	86.3	84.3	32	52.9	1	3	270	0.00	29.970 
11:30	86.5	86.5	84.4	31	52.2	0	2	270	0.00	29.970 
11:35	86.7	86.7	84.7	32	53.3	1	3	270	0.00	29.969 
11:40	87.0	87.0	85.0	32	53.5	1	2	248	0.00	29.969 
11:45	87.8	87.8	86.1	33	55.1	0	2	270	0.00	29.967 
11:50	88.2	88.2	86.9	35	57.0	0	2	248	0.00	29.967 
11:55	87.8	87.8	85.9	32	54.2	1	2	315	0.00	29.968 
12:00	87.6	87.6	85.5	31	53.2	2	4	270	0.00	29.968 
12:05	87.6	87.6	86.2	35	56.5	1	3	315	0.00	29.967 
12:10	88.0	88.0	86.5	34	56.1	1	2	315	0.00	29.967 
12:15	88.0	88.0	86.3	33	55.2	0	2	315	0.00	29.966 
12:20	88.2	88.2	86.1	31	53.7	1	3	45	0.00	29.963 
12:25	88.0	88.0	85.9	31	53.5	1	3	45	0.00	29.963 
12:30	87.8	87.8	86.1	33	55.1	0	2	45	0.00	29.962 
12:35	88.0	88.0	86.5	34	56.1	0	1	45	0.00	29.961 
12:40	88.2	88.2	86.5	33	55.4	2	6	90	0.00	29.959 
12:45	88.0	88.0	86.7	35	56.9	1	2	68	0.00	29.957 
12:50	88.2	88.2	86.5	33	55.4	1	3	68	0.00	29.958 
12:55	88.2	88.2	86.3	32	54.6	1	3	315	0.00	29.958 
13:00	88.6	88.6	87.4	35	57.4	0	2	315	0.00	29.955 
13:05	89.3	89.3	88.0	34	57.2	1	3	292	0.00	29.957 
13:10	88.6	88.6	86.7	32	54.9	1	3	292	0.00	29.957 
13:15	88.8	88.8	86.8	31	54.2	1	3	0	0.00	29.957 
13:20	88.6	88.6	86.6	31	54.1	1	2	0	0.00	29.957 
13:25	87.6	87.6	85.8	33	54.9	0	2	0	0.00	29.957 
13:30	87.6	87.6	86.0	34	55.7	0	2	22	0.00	29.956 
13:35	87.2	87.2	85.8	35	56.2	0	1	22	0.00	29.957 
13:40	87.2	87.2	86.4	38	58.5	0	1	22	0.00	29.955 
13:45	88.0	88.0	86.3	33	55.2	1	3	292	0.00	29.951 
13:50	88.8	88.8	87.6	35	57.6	0	1	292	0.00	29.951 
13:55	89.0	89.0	87.0	31	54.4	1	4	22	0.00	29.946 
14:00	89.0	89.0	87.0	31	54.4	0	2	90	0.00	29.943 
14:05	89.5	89.5	87.8	32	55.7	0	2	22	0.00	29.942 
14:10	89.9	89.9	88.5	33	56.9	0	2	338	0.00	29.941 
14:15	89.5	89.5	87.8	32	55.7	0	3	0	0.00	29.940 
14:20	89.3	89.3	87.6	32	55.5	1	4	90	0.00	29.942 
14:25	89.7	89.7	88.8	35	58.4	0	2	68	0.00	29.940 
14:30	90.7	90.7	88.5	29	54.0	0	2	68	0.00	29.938 
14:35	91.6	91.6	90.7	33	58.4	0	3	68	0.00	29.935 
14:40	92.3	92.3	90.2	28	54.4	1	3	270	0.00	29.935 
14:45	92.1	92.1	90.2	29	55.2	1	3	112	0.00	29.934 
14:50	90.1	90.1	88.5	32	56.2	1	5	112	0.00	29.934 
14:55	88.8	88.8	87.2	33	55.9	0	2	22	0.00	29.936 
15:00	88.6	88.6	87.2	34	56.6	0	2	315	0.00	29.934 
15:05	89.5	89.5	88.8	36	59.0	0	2	315	0.00	29.935 
15:10	89.9	89.9	88.0	31	55.2	0	2	315	0.00	29.933 
15:15	90.3	90.3	87.8	28	52.7	1	2	0	0.00	29.929 
15:20	90.5	90.5	88.5	30	54.8	1	3	90	0.00	29.925 
15:25	90.5	90.5	88.5	30	54.8	1	3	90	0.00	29.924 
15:30	90.5	90.5	88.5	30	54.8	1	3	90	0.00	29.924 
15:35	90.7	90.7	88.3	28	53.1	1	4	90	0.00	29.923 
15:40	91.2	91.2	88.9	28	53.5	1	3	292	0.00	29.924 
15:45	91.6	91.6	90.1	31	56.6	0	3	90	0.00	29.924 
15:50	91.6	91.6	89.1	27	52.8	0	1	90	0.00	29.924 
15:55	91.2	91.2	88.9	28	53.5	0	1	90	0.00	29.924 
16:00	91.0	91.0	88.4	27	52.3	0	2	90	0.00	29.924 
16:05	91.2	91.2	88.9	28	53.5	0	2	90	0.00	29.924 
16:10	91.8	91.8	89.6	28	54.0	0	3	90	0.00	29.922 
16:15	91.8	91.8	89.6	28	54.0	1	2	90	0.00	29.922 
16:20	91.8	91.8	90.1	30	55.9	1	3	90	0.00	29.922 
16:25	91.8	91.8	89.6	28	54.0	1	4	90	0.00	29.918 
16:30	91.6	91.6	89.4	28	53.8	1	4	112	0.00	29.915 
16:35	91.6	91.6	89.1	27	52.8	1	2	112	0.00	29.914 
16:40	91.8	91.8	89.6	28	54.0	0	1	112	0.00	29.912 
16:45	91.8	91.8	89.1	26	52.0	0	2	112	0.00	29.909 
16:50	91.6	91.6	88.9	26	51.8	0	2	225	0.00	29.910 
16:55	91.4	91.4	88.5	25	50.6	0	2	225	0.00	29.911 
17:00	91.0	91.0	88.2	26	51.3	0	1	225	0.00	29.910 
17:05	90.5	90.5	87.9	27	51.9	0	1	225	0.00	29.910 
17:10	89.7	89.7	86.8	26	50.2	0	2	270	0.00	29.911 
17:15	89.0	89.0	86.3	27	50.6	0	1	270	0.00	29.910 
17:20	88.6	88.6	86.0	28	51.3	0	0	---	0.00	29.910 
17:25	88.6	88.6	86.2	29	52.2	0	1	270	0.00	29.909 
17:30	88.8	88.8	86.1	27	50.5	0	1	270	0.00	29.906 
17:35	89.3	89.3	86.8	28	51.9	0	3	0	0.00	29.904 
17:40	89.5	89.5	86.8	27	51.1	0	2	0	0.00	29.905 
17:45	89.5	89.5	87.0	28	52.0	0	1	0	0.00	29.903 
17:50	89.5	89.5	86.8	27	51.1	0	0	---	0.00	29.900 
17:55	89.5	89.5	87.0	28	52.0	0	0	---	0.00	29.898 
18:00	89.5	89.5	86.8	27	51.1	0	1	0	0.00	29.898 
18:05	89.3	89.3	86.8	28	51.9	0	2	0	0.00	29.896 
18:10	89.5	89.5	87.0	28	52.0	1	2	0	0.00	29.896 
18:15	89.3	89.3	86.6	27	50.9	1	3	292	0.00	29.899 
18:20	89.0	89.0	86.4	28	51.6	0	2	292	0.00	29.899 
18:25	88.8	88.8	86.1	27	50.5	0	1	292	0.00	29.900 
18:30	88.8	88.8	86.2	28	51.4	0	0	---	0.00	29.902 
18:35	88.6	88.6	86.4	30	53.2	0	0	---	0.00	29.901 
18:40	88.2	88.2	85.9	30	52.8	0	0	---	0.00	29.902 
18:45	88.0	88.0	85.6	29	51.7	0	1	292	0.00	29.903 
18:50	87.8	87.8	85.4	29	51.5	0	0	---	0.00	29.904 
18:55	87.6	87.6	85.5	31	53.2	0	0	---	0.00	29.904 
19:00	87.4	87.4	85.3	31	53.0	0	0	---	0.00	29.907 
19:05	86.7	86.7	84.6	31	52.4	0	0	---	0.00	29.903 
19:10	86.3	86.3	84.5	33	53.8	0	0	---	0.00	29.901 
19:15	85.9	85.9	84.2	34	54.2	0	0	---	0.00	29.902 
19:20	85.7	85.7	84.2	35	54.9	0	0	---	0.00	29.903 
19:25	85.3	85.3	84.1	37	56.0	0	0	---	0.00	29.904 
19:30	84.9	84.9	84.4	41	58.5	0	0	---	0.00	29.903 
19:35	84.7	84.7	84.0	40	57.7	0	0	---	0.00	29.904 
19:40	84.3	84.3	83.6	40	57.3	0	0	---	0.00	29.903 
19:45	84.0	84.0	83.1	39	56.3	0	0	---	0.00	29.903 
19:50	83.4	83.4	82.7	40	56.5	0	0	---	0.00	29.903 
19:55	83.0	83.0	82.5	41	56.8	0	0	---	0.00	29.904 
20:00	82.4	82.4	81.9	41	56.3	0	0	---	0.00	29.905 
20:05	82.0	82.0	81.7	42	56.6	0	0	---	0.00	29.902 
20:10	81.6	81.6	81.5	43	56.9	0	0	---	0.00	29.902 
20:15	81.1	81.1	81.0	43	56.5	0	0	---	0.00	29.902 
20:20	80.5	80.5	80.6	43	55.9	0	0	---	0.00	29.903 
20:25	80.1	80.1	80.3	44	56.2	0	0	---	0.00	29.905 
20:30	79.6	79.6	80.1	46	57.0	0	0	---	0.00	29.906 
20:35	79.2	79.2	79.9	47	57.2	0	0	---	0.00	29.906 
20:40	78.8	78.8	79.8	50	58.6	0	0	---	0.00	29.905 
20:45	78.6	78.6	79.7	50	58.4	0	0	---	0.00	29.905 
20:50	78.3	78.3	79.4	50	58.1	0	0	---	0.00	29.905 
20:55	77.9	77.9	79.2	51	58.3	0	2	292	0.00	29.906 
21:00	77.7	77.7	79.1	51	58.1	0	2	292	0.00	29.912 
21:05	78.6	78.6	79.7	50	58.4	1	2	292	0.00	29.908 
21:10	79.6	79.6	80.4	49	58.7	1	3	292	0.00	29.913 
21:15	79.8	79.8	80.5	48	58.3	0	1	292	0.00	29.915 
21:20	79.8	79.8	80.5	49	58.9	1	3	292	0.00	29.917 
21:25	79.8	79.8	80.5	49	58.9	0	2	292	0.00	29.918 
21:30	79.6	79.6	80.5	50	59.3	0	1	292	0.00	29.920 
21:35	79.4	79.4	80.3	50	59.1	0	1	292	0.00	29.919 
21:40	79.2	79.2	80.1	50	58.9	0	1	292	0.00	29.917 
21:45	79.0	79.0	80.0	50	58.7	0	0	---	0.00	29.917 
21:50	78.8	78.8	79.9	51	59.1	0	0	---	0.00	29.917 
21:55	78.6	78.6	79.8	52	59.5	0	1	292	0.00	29.921 
22:00	78.3	78.3	79.6	52	59.2	0	1	292	0.00	29.922 
22:05	77.9	77.9	79.3	53	59.4	0	0	---	0.00	29.921 
22:10	77.6	77.6	79.1	54	59.6	0	0	---	0.00	29.916 
22:15	77.2	77.2	78.8	54	59.2	0	0	---	0.00	29.916 
22:20	76.7	76.7	78.5	56	59.8	0	0	---	0.00	29.915 
22:25	76.3	76.3	78.3	57	59.9	0	0	---	0.00	29.915 
22:30	76.0	76.0	78.1	57	59.6	0	0	---	0.00	29.915 
22:35	75.6	75.6	77.8	58	59.8	0	0	---	0.00	29.915 
22:40	75.3	75.3	77.6	59	60.0	0	0	---	0.00	29.916 
22:45	74.9	74.9	74.9	60	60.1	0	0	---	0.00	29.915 
22:50	74.7	74.7	74.7	61	60.3	0	0	---	0.00	29.916 
22:55	74.6	74.6	74.6	61	60.2	0	0	---	0.00	29.917 
23:00	74.6	74.6	74.6	62	60.7	0	0	---	0.00	29.916 
23:05	74.6	74.6	74.6	62	60.7	0	0	---	0.00	29.913 
23:10	74.4	74.4	74.4	61	60.1	0	0	---	0.00	29.913 
23:15	74.6	74.6	74.6	61	60.2	0	0	---	0.00	29.914 
23:20	74.4	74.4	74.4	62	60.5	0	0	---	0.00	29.914 
23:25	74.4	74.4	74.4	62	60.5	0	0	---	0.00	29.914 
23:30	74.4	74.4	74.4	62	60.5	0	1	292	0.00	29.916 
23:35	74.6	74.6	74.6	62	60.7	0	1	292	0.00	29.914 
23:40	74.4	74.4	74.4	61	60.1	0	0	---	0.00	29.914 
23:45	74.4	74.4	74.4	61	60.1	0	0	---	0.00	29.913 
23:50	74.2	74.2	74.2	62	60.3	0	0	---	0.00	29.913 
23:55	74.0	74.0	74.0	62	60.1	0	0	---	0.00	29.912 

CoCoRaHS
IN-AL-39
A2 Web Hosting
Creative Commons License
GoDaddy
Look for:

loaded 2017-10-18 07:14:24 • last modified 2010-11-18 10:43:29
Privacy PolicyDisclaimer
• wx.awcolley.com is powered by PmWiki v.2002016 •
• all content (unless otherwise noted) © 2017 A W Colley